createdAt,value
2022-09-29T00:00:38.405Z,97906.97
2022-09-29T00:03:05.504Z,97824.84
2022-09-29T00:05:32.112Z,97882.50
2022-09-29T00:07:58.650Z,97906.16
2022-09-29T00:10:25.379Z,97876.19
2022-09-29T00:12:51.954Z,97912.03
2022-09-29T00:15:18.545Z,97868.69
2022-09-29T00:18:02.986Z,97878.19
2022-09-29T00:20:31.559Z,97907.91
2022-09-29T00:22:58.095Z,97910.34
2022-09-29T00:25:24.739Z,97847.69
2022-09-29T00:27:51.320Z,97910.06
2022-09-29T00:30:18.204Z,97622.59
2022-09-29T00:32:45.491Z,97912.09
2022-09-29T00:35:12.287Z,97910.75
2022-09-29T00:37:40.077Z,97830.63
2022-09-29T00:40:07.595Z,97847.16
2022-09-29T00:42:34.172Z,97911.19
2022-09-29T00:45:13.902Z,97715.09
2022-09-29T00:47:43.620Z,97939.72
2022-09-29T00:50:19.781Z,97835.75
2022-09-29T00:52:55.874Z,97903.94
2022-09-29T00:55:27.812Z,97932.66
2022-09-29T00:58:09.393Z,97902.31
2022-09-29T01:00:36.806Z,97778.13
2022-09-29T01:03:16.314Z,97845.50
2022-09-29T01:05:48.898Z,97766.88
2022-09-29T01:08:23.062Z,98009.41
2022-09-29T01:10:51.463Z,97985.41
2022-09-29T01:13:19.560Z,97910.16
2022-09-29T01:15:46.499Z,97813.75
2022-09-29T01:18:13.084Z,97932.28
2022-09-29T01:20:51.326Z,97938.41
2022-09-29T01:23:41.329Z,97668.78
2022-09-29T01:26:19.620Z,97223.44
2022-09-29T01:29:36.372Z,97935.59
2022-09-29T01:32:15.643Z,97942.16
2022-09-29T01:35:01.023Z,97953.72
2022-09-29T01:37:27.893Z,97957.97
2022-09-29T01:40:13.972Z,97858.22
2022-09-29T01:43:11.532Z,97874.50
2022-09-29T01:45:42.902Z,97951.72
2022-09-29T01:48:15.399Z,97978.81
2022-09-29T01:50:48.632Z,97961.91
2022-09-29T01:53:20.635Z,97965.13
2022-09-29T01:55:52.726Z,98012.84
2022-09-29T01:58:36.731Z,97826.38
2022-09-29T02:01:09.947Z,97967.91
2022-09-29T02:03:53.037Z,97937.03
2022-09-29T02:06:23.595Z,97950.75
2022-09-29T02:08:55.622Z,97973.63
2022-09-29T02:11:22.964Z,97956.44
2022-09-29T02:13:52.798Z,97934.06
2022-09-29T02:16:24.499Z,97934.75
2022-09-29T02:18:59.254Z,97983.75
2022-09-29T02:21:27.305Z,97849.03
2022-09-29T02:23:54.424Z,97666.09
2022-09-29T02:26:21.227Z,97940.44
2022-09-29T02:28:48.085Z,97806.47
2022-09-29T02:31:14.738Z,97935.22
2022-09-29T02:33:41.463Z,97895.56
2022-09-29T02:36:33.256Z,97939.13
2022-09-29T02:39:08.857Z,97963.81
2022-09-29T02:41:53.892Z,97959.44
2022-09-29T02:44:41.338Z,97857.03
2022-09-29T02:47:13.879Z,97959.72
2022-09-29T02:49:57.443Z,97937.91
2022-09-29T02:52:39.269Z,97954.03
2022-09-29T02:55:20.018Z,98014.97
2022-09-29T02:58:12.888Z,97853.38
2022-09-29T03:00:40.367Z,97943.59
2022-09-29T03:03:06.874Z,97949.41
2022-09-29T03:05:33.624Z,97890.75
2022-09-29T03:08:00.128Z,97908.97
2022-09-29T03:10:30.011Z,97913.00
2022-09-29T03:12:57.083Z,97966.16
2022-09-29T03:15:24.424Z,97841.88
2022-09-29T03:17:50.924Z,97922.75
2022-09-29T03:20:17.417Z,97952.44
2022-09-29T03:22:43.938Z,97975.56
2022-09-29T03:25:12.693Z,97860.63
2022-09-29T03:27:39.556Z,97920.38
2022-09-29T03:30:06.713Z,97953.72
2022-09-29T03:32:33.211Z,97821.53
2022-09-29T03:34:59.796Z,97850.34
2022-09-29T03:37:26.292Z,97870.72
2022-09-29T03:39:52.819Z,97916.94
2022-09-29T03:42:19.456Z,97958.66
2022-09-29T03:44:45.924Z,97866.66
2022-09-29T03:47:12.419Z,97701.41
2022-09-29T03:49:39.034Z,97961.81
2022-09-29T03:52:05.526Z,97917.50
2022-09-29T03:54:32.330Z,97870.06
2022-09-29T03:56:58.812Z,97908.97
2022-09-29T03:59:25.325Z,97964.91
2022-09-29T04:01:51.854Z,97956.09
2022-09-29T04:04:18.521Z,97969.22
2022-09-29T04:06:45.071Z,97967.56
2022-09-29T04:09:11.680Z,97967.56
2022-09-29T04:11:38.216Z,97950.56
2022-09-29T04:14:04.934Z,97660.06
2022-09-29T04:16:31.595Z,97980.50
2022-09-29T04:18:58.294Z,97922.09
2022-09-29T04:21:25.573Z,97968.91
2022-09-29T04:23:52.588Z,97830.34
2022-09-29T04:26:20.614Z,97978.09
2022-09-29T04:28:47.874Z,97899.50
2022-09-29T04:31:14.656Z,97904.50
2022-09-29T04:33:41.637Z,97789.06
2022-09-29T04:36:08.576Z,97929.34
2022-09-29T04:38:35.299Z,97899.31
2022-09-29T04:41:02.150Z,97950.88
2022-09-29T04:43:28.840Z,97918.25
2022-09-29T04:46:03.192Z,97871.31
2022-09-29T04:48:32.512Z,97889.69
2022-09-29T04:51:03.197Z,97941.13
2022-09-29T04:53:29.830Z,97930.41
2022-09-29T04:55:56.815Z,97871.53
2022-09-29T04:58:23.408Z,97874.00
2022-09-29T05:00:50.032Z,97901.09
2022-09-29T05:03:17.171Z,97904.97
2022-09-29T05:05:43.777Z,97903.91
2022-09-29T05:08:10.315Z,97930.91
2022-09-29T05:10:36.959Z,97849.97
2022-09-29T05:13:03.443Z,97894.41
2022-09-29T05:15:30.028Z,97951.91
2022-09-29T05:17:56.585Z,97927.78
2022-09-29T05:20:23.105Z,97923.66
2022-09-29T05:22:49.637Z,97934.84
2022-09-29T05:25:16.142Z,97831.88
2022-09-29T05:27:42.626Z,97942.97
2022-09-29T05:30:09.584Z,97947.91
2022-09-29T05:32:36.048Z,97910.56
2022-09-29T05:35:03.412Z,97932.44
2022-09-29T05:37:30.144Z,97633.34
2022-09-29T05:39:56.625Z,97923.88
2022-09-29T05:42:25.841Z,97984.78
2022-09-29T05:44:52.770Z,97992.06
2022-09-29T05:47:19.737Z,97997.81
2022-09-29T05:49:46.415Z,97987.22
2022-09-29T05:52:13.046Z,97832.19
2022-09-29T05:54:39.606Z,97985.38
2022-09-29T05:57:06.933Z,97700.00
2022-09-29T05:59:33.467Z,97686.03
2022-09-29T06:02:00.063Z,97986.44
2022-09-29T06:04:26.568Z,97977.25
2022-09-29T06:06:53.456Z,97980.03
2022-09-29T06:09:20.259Z,97951.69
2022-09-29T06:11:46.868Z,97993.19
2022-09-29T06:14:13.384Z,97988.97
2022-09-29T06:16:39.948Z,97912.22
2022-09-29T06:19:06.528Z,97991.09
2022-09-29T06:21:35.259Z,97991.41
2022-09-29T06:24:02.404Z,97997.97
2022-09-29T06:26:29.759Z,97921.53
2022-09-29T06:28:57.371Z,97693.34
2022-09-29T06:31:26.472Z,97710.44
2022-09-29T06:33:56.291Z,97585.63
2022-09-29T06:36:47.315Z,97990.44
2022-09-29T06:39:15.068Z,97914.03
2022-09-29T06:41:44.536Z,98010.56
2022-09-29T06:44:11.711Z,98012.19
2022-09-29T06:46:38.795Z,98043.88
2022-09-29T06:49:05.535Z,97969.56
2022-09-29T06:51:43.504Z,97843.56
2022-09-29T06:54:14.665Z,98004.16
2022-09-29T06:56:41.227Z,98007.78
2022-09-29T06:59:08.116Z,97981.84
2022-09-29T07:01:34.996Z,98007.03
2022-09-29T07:04:02.350Z,98013.16
2022-09-29T07:06:29.468Z,97742.41
2022-09-29T07:08:57.359Z,98008.84
2022-09-29T07:11:23.854Z,98017.88
2022-09-29T07:13:54.516Z,98018.44
2022-09-29T07:16:23.767Z,97934.69
2022-09-29T07:18:51.192Z,98005.91
2022-09-29T07:21:18.712Z,97988.91
2022-09-29T07:23:46.917Z,97927.09
2022-09-29T07:26:16.736Z,98026.13
2022-09-29T07:28:44.802Z,98030.69
2022-09-29T07:31:15.779Z,98033.97
2022-09-29T07:33:46.940Z,98019.03
2022-09-29T07:36:15.524Z,98043.78
2022-09-29T07:38:42.537Z,97988.91
2022-09-29T07:41:11.739Z,97920.31
2022-09-29T07:43:39.408Z,98048.50
2022-09-29T07:46:06.935Z,98053.00
2022-09-29T07:48:34.509Z,98055.19
2022-09-29T07:51:05.987Z,98043.72
2022-09-29T07:53:33.909Z,98015.13
2022-09-29T07:56:05.968Z,98052.63
2022-09-29T07:58:33.426Z,98046.22
2022-09-29T08:01:01.458Z,97876.28
2022-09-29T08:03:30.079Z,98046.53
2022-09-29T08:05:58.005Z,98030.25
2022-09-29T08:08:25.434Z,98057.38
2022-09-29T08:10:53.792Z,98053.69
2022-09-29T08:13:20.957Z,98000.56
2022-09-29T08:15:47.635Z,98021.91
2022-09-29T08:18:14.483Z,98041.63
2022-09-29T08:20:41.217Z,98062.28
2022-09-29T08:23:07.730Z,97777.66
2022-09-29T08:25:35.604Z,98009.38
2022-09-29T08:28:02.728Z,98048.75
2022-09-29T08:30:29.656Z,97975.47
2022-09-29T08:32:56.899Z,98059.41
2022-09-29T08:35:23.773Z,98051.22
2022-09-29T08:37:50.370Z,97988.41
2022-09-29T08:40:17.800Z,98055.28
2022-09-29T08:42:57.780Z,98054.47
2022-09-29T08:45:31.980Z,98055.97
2022-09-29T08:48:22.747Z,98072.28
2022-09-29T08:51:03.853Z,98058.13
2022-09-29T08:53:35.650Z,98023.03
2022-09-29T08:56:14.995Z,97928.97
2022-09-29T08:58:41.611Z,98032.56
2022-09-29T09:01:29.799Z,98055.81
2022-09-29T09:04:28.969Z,98062.38
2022-09-29T09:07:01.275Z,98034.31
2022-09-29T09:09:51.628Z,98070.72
2022-09-29T09:12:27.403Z,98059.31
2022-09-29T09:15:21.324Z,98067.22
2022-09-29T09:17:53.624Z,98077.22
2022-09-29T09:20:32.063Z,98073.16
2022-09-29T09:23:11.915Z,98092.19
2022-09-29T09:25:49.338Z,98120.66
2022-09-29T09:28:25.703Z,97975.16
2022-09-29T09:31:00.515Z,98126.16
2022-09-29T09:33:34.751Z,98078.53
2022-09-29T09:36:41.290Z,98042.19
2022-09-29T09:39:25.450Z,98150.00
2022-09-29T09:41:56.465Z,98120.56
2022-09-29T09:44:29.523Z,98124.66
2022-09-29T09:47:06.435Z,98185.72
2022-09-29T09:49:37.969Z,98126.03
2022-09-29T09:52:18.103Z,98130.16
2022-09-29T09:54:46.361Z,98136.16
2022-09-29T09:57:22.055Z,98139.47
2022-09-29T10:00:13.584Z,98143.00
2022-09-29T10:02:47.341Z,98144.66
2022-09-29T10:05:16.745Z,98106.78
2022-09-29T10:07:44.580Z,98142.63
2022-09-29T10:10:21.914Z,98146.03
2022-09-29T10:13:11.079Z,98084.59
2022-09-29T10:15:46.419Z,98087.19
2022-09-29T10:18:48.754Z,98151.38
2022-09-29T10:21:20.583Z,98044.09
2022-09-29T10:23:57.406Z,98162.59
2022-09-29T10:26:27.764Z,97909.28
2022-09-29T10:29:01.849Z,98099.09
2022-09-29T10:31:34.730Z,98113.44
2022-09-29T10:34:10.163Z,98143.22
2022-09-29T10:36:59.352Z,98146.78
2022-09-29T10:39:38.699Z,97998.72
2022-09-29T10:42:23.900Z,98039.03
2022-09-29T10:45:14.975Z,98125.09
2022-09-29T10:47:44.905Z,98175.19
2022-09-29T10:50:22.109Z,98164.78
2022-09-29T10:52:57.928Z,98100.47
2022-09-29T10:55:51.830Z,98182.31
2022-09-29T10:58:57.635Z,98171.78
2022-09-29T11:01:34.586Z,98108.94
2022-09-29T11:04:12.991Z,98079.94
2022-09-29T11:06:44.107Z,98190.25
2022-09-29T11:09:14.159Z,98186.56
2022-09-29T11:11:59.964Z,98141.78
2022-09-29T11:14:36.244Z,98170.66
2022-09-29T11:17:21.133Z,98165.19
2022-09-29T11:19:47.687Z,98099.09
2022-09-29T11:22:33.663Z,98175.88
2022-09-29T11:25:04.717Z,98231.59
2022-09-29T11:27:54.392Z,98179.56
2022-09-29T11:30:41.181Z,98185.59
2022-09-29T11:33:58.572Z,98185.72
2022-09-29T11:37:09.935Z,98189.97
2022-09-29T11:39:56.668Z,98185.31
2022-09-29T11:42:58.809Z,98104.69
2022-09-29T11:45:53.099Z,98222.41
2022-09-29T11:48:43.325Z,98208.59
2022-09-29T11:51:29.518Z,98155.22
2022-09-29T11:54:14.640Z,98199.81
2022-09-29T11:56:50.165Z,98202.97
2022-09-29T11:59:55.486Z,98204.22
2022-09-29T12:02:47.532Z,98156.56
2022-09-29T12:05:28.901Z,98196.69
2022-09-29T12:08:34.689Z,98213.38
2022-09-29T12:11:50.861Z,98172.72
2022-09-29T12:14:30.798Z,98218.72
2022-09-29T12:17:02.612Z,98221.88
2022-09-29T12:19:33.736Z,98218.31
2022-09-29T12:22:03.192Z,98211.31
2022-09-29T12:24:41.192Z,98163.38
2022-09-29T12:27:16.754Z,98298.03
2022-09-29T12:29:48.090Z,98202.56
2022-09-29T12:32:29.834Z,98112.22
2022-09-29T12:35:02.124Z,98115.84
2022-09-29T12:37:43.020Z,98225.84
2022-09-29T12:40:17.075Z,98162.25
2022-09-29T12:42:49.363Z,98182.00
2022-09-29T12:45:46.910Z,98228.03
2022-09-29T12:48:45.904Z,98175.56
2022-09-29T12:51:24.061Z,98145.88
2022-09-29T12:53:59.980Z,98165.84
2022-09-29T12:56:33.447Z,98285.84
2022-09-29T12:59:09.554Z,98231.59
2022-09-29T13:02:40.872Z,98236.28
2022-09-29T13:05:37.544Z,98245.16
2022-09-29T13:08:29.041Z,98255.16
2022-09-29T13:11:25.291Z,98249.13
2022-09-29T13:14:15.914Z,98261.19
2022-09-29T13:16:42.356Z,98255.56
2022-09-29T13:19:46.079Z,98255.97
2022-09-29T13:22:30.376Z,98031.34
2022-09-29T13:25:05.720Z,98259.13
2022-09-29T13:27:37.504Z,98165.03
2022-09-29T13:30:18.361Z,98263.75
2022-09-29T13:32:48.832Z,98331.75
2022-09-29T13:35:19.789Z,98269.63
2022-09-29T13:37:56.914Z,98259.50
2022-09-29T13:40:28.693Z,98270.47
2022-09-29T13:43:00.407Z,98261.56
2022-09-29T13:45:34.361Z,98268.53
2022-09-29T13:48:22.561Z,98270.47
2022-09-29T13:50:59.534Z,98290.44
2022-09-29T13:53:35.497Z,98260.31
2022-09-29T13:56:01.920Z,98286.59
2022-09-29T13:58:39.183Z,98196.06
2022-09-29T14:01:07.752Z,98284.53
2022-09-29T14:03:47.581Z,98253.53
2022-09-29T14:06:40.158Z,98290.13
2022-09-29T14:09:19.969Z,98288.22
2022-09-29T14:11:52.149Z,98173.09
2022-09-29T14:14:29.863Z,98186.38
2022-09-29T14:17:20.566Z,98287.38
2022-09-29T14:20:24.695Z,98229.56
2022-09-29T14:23:03.106Z,98167.31
2022-09-29T14:25:31.761Z,98286.78
2022-09-29T14:28:04.774Z,98284.72
2022-09-29T14:30:31.452Z,98289.91
2022-09-29T14:33:02.284Z,98289.06
2022-09-29T14:35:47.583Z,98228.13
2022-09-29T14:38:29.778Z,98298.53
2022-09-29T14:41:06.129Z,98259.66
2022-09-29T14:43:41.405Z,98293.19
2022-09-29T14:46:48.299Z,98288.25
2022-09-29T14:49:55.351Z,98284.56
2022-09-29T14:52:46.333Z,98288.69
2022-09-29T14:55:15.702Z,98289.13
2022-09-29T14:58:07.077Z,98281.06
2022-09-29T15:00:47.992Z,98249.16
2022-09-29T15:03:27.849Z,98283.31
2022-09-29T15:06:11.915Z,98273.16
2022-09-29T15:08:39.947Z,98281.69
2022-09-29T15:11:27.446Z,98192.72
2022-09-29T15:13:55.452Z,98094.69
2022-09-29T15:16:34.019Z,98315.63
2022-09-29T15:19:06.836Z,98289.34
2022-09-29T15:21:45.326Z,98284.97
2022-09-29T15:24:31.606Z,98299.91
2022-09-29T15:27:07.354Z,98198.81
2022-09-29T15:29:33.936Z,98299.63
2022-09-29T15:32:02.030Z,98198.28
2022-09-29T15:34:28.679Z,98301.94
2022-09-29T15:36:56.535Z,98161.44
2022-09-29T15:39:33.102Z,98312.34
2022-09-29T15:42:02.276Z,98309.59
2022-09-29T15:44:33.579Z,98259.94
2022-09-29T15:47:00.880Z,98295.28
2022-09-29T15:49:29.107Z,98323.81
2022-09-29T15:51:59.000Z,98423.47
2022-09-29T15:54:34.720Z,98258.41
2022-09-29T15:57:20.855Z,98321.09
2022-09-29T15:59:51.343Z,98135.19
2022-09-29T16:02:32.223Z,98396.38
2022-09-29T16:05:03.379Z,98199.81
2022-09-29T16:07:38.947Z,98359.06
2022-09-29T16:10:17.196Z,98326.56
2022-09-29T16:12:58.804Z,98324.13
2022-09-29T16:15:30.305Z,98338.88
2022-09-29T16:18:05.976Z,98320.88
2022-09-29T16:20:35.337Z,98222.09
2022-09-29T16:23:16.073Z,98349.25
2022-09-29T16:25:43.763Z,98218.44
2022-09-29T16:28:27.558Z,98381.38
2022-09-29T16:31:22.369Z,98331.34
2022-09-29T16:33:56.599Z,98409.72
2022-09-29T16:36:29.105Z,98364.81
2022-09-29T16:38:56.182Z,98368.13
2022-09-29T16:41:38.484Z,98369.44
2022-09-29T16:44:12.790Z,98371.34
2022-09-29T16:47:04.968Z,98385.56
2022-09-29T16:49:44.701Z,98391.28
2022-09-29T16:52:33.893Z,98348.34
2022-09-29T16:55:20.925Z,98299.06
2022-09-29T16:57:55.539Z,98197.25
2022-09-29T17:00:22.923Z,98335.69
2022-09-29T17:02:53.432Z,98177.13
2022-09-29T17:05:30.742Z,98396.34
2022-09-29T17:08:04.226Z,98401.16
2022-09-29T17:10:32.064Z,98393.09
2022-09-29T17:13:40.823Z,98410.09
2022-09-29T17:16:10.991Z,98399.69
2022-09-29T17:18:52.232Z,98410.22
2022-09-29T17:21:22.697Z,98409.16
2022-09-29T17:23:49.227Z,98388.53
2022-09-29T17:26:41.919Z,98490.56
2022-09-29T17:29:08.397Z,98422.13
2022-09-29T17:31:35.441Z,98392.88
2022-09-29T17:34:07.788Z,98422.84
2022-09-29T17:36:38.270Z,98424.63
2022-09-29T17:39:04.893Z,98313.69
2022-09-29T17:41:32.075Z,98428.41
2022-09-29T17:43:58.548Z,98459.75
2022-09-29T17:46:25.157Z,98045.50
2022-09-29T17:48:51.930Z,98406.00
2022-09-29T17:51:18.480Z,98398.75
2022-09-29T17:53:47.653Z,98458.84
2022-09-29T17:56:25.941Z,98439.69
2022-09-29T17:58:53.936Z,98420.56
2022-09-29T18:01:23.908Z,98485.16
2022-09-29T18:03:51.839Z,98272.56
2022-09-29T18:06:26.468Z,98446.88
2022-09-29T18:08:54.669Z,98444.41
2022-09-29T18:11:26.662Z,98439.19
2022-09-29T18:13:53.532Z,98371.75
2022-09-29T18:16:22.798Z,98440.34
2022-09-29T18:18:55.506Z,98436.41
2022-09-29T18:21:23.798Z,98440.09
2022-09-29T18:23:50.425Z,98440.09
2022-09-29T18:26:18.179Z,98440.78
2022-09-29T18:28:48.415Z,98439.84
2022-09-29T18:31:24.114Z,98397.13
2022-09-29T18:33:51.119Z,98440.78
2022-09-29T18:36:17.628Z,98441.28
2022-09-29T18:38:44.283Z,98349.06
2022-09-29T18:41:18.752Z,98347.19
2022-09-29T18:43:47.865Z,98447.00
2022-09-29T18:46:15.358Z,98399.25
2022-09-29T18:48:42.346Z,98356.72
2022-09-29T18:51:13.521Z,98451.72
2022-09-29T18:53:41.288Z,98446.00
